Terminal Aerodrome Forecast
Issued by NWS

Home | Current Version | Previous Version | Text Only | Print | Product List | Glossary On
Versions: 1 2 3 4 5 6 7 8 9 10 11 12 13 14 15 16 17
000
FTUS46 KMFR 212339
TAFLMT
TAF
KLMT 212339Z 2200/2224 26018G28KT 6SM -RA BR SCT020 BKN025 OVC040
     FM220500 27008KT P6SM VCSH OVC012
     FM221200 27008KT 4SM BR OVC020=

USA.gov is the U.S. government's official web portal to all federal, state and local government web resources and services.